sensor_id;sensor_type;location;lat;lon;timestamp;pressure;altitude;pressure_sealevel;temperature;humidity
54270;BME280;40181;51.560;13.000;2023-02-14T00:02:03;102838.59;;;5.74;100.00
54270;BME280;40181;51.560;13.000;2023-02-14T00:04:33;102836.88;;;5.75;100.00
54270;BME280;40181;51.560;13.000;2023-02-14T00:07:08;102832.22;;;5.82;99.70
54270;BME280;40181;51.560;13.000;2023-02-14T00:09:39;102836.56;;;5.33;100.00
54270;BME280;40181;51.560;13.000;2023-02-14T00:12:08;102822.41;;;5.29;100.00
54270;BME280;40181;51.560;13.000;2023-02-14T00:14:37;102823.50;;;5.45;100.00
54270;BME280;40181;51.560;13.000;2023-02-14T00:17:19;102824.59;;;5.60;100.00
54270;BME280;40181;51.560;13.000;2023-02-14T00:19:48;102826.03;;;5.68;100.00
54270;BME280;40181;51.560;13.000;2023-02-14T00:22:17;102834.06;;;5.72;100.00
54270;BME280;40181;51.560;13.000;2023-02-14T00:24:49;102822.34;;;5.78;100.00
54270;BME280;40181;51.560;13.000;2023-02-14T00:27:18;102831.97;;;5.79;100.00
54270;BME280;40181;51.560;13.000;2023-02-14T00:29:47;102832.69;;;5.77;100.00
54270;BME280;40181;51.560;13.000;2023-02-14T00:32:16;102832.59;;;5.75;100.00
54270;BME280;40181;51.560;13.000;2023-02-14T00:34:45;102842.84;;;5.86;100.00
54270;BME280;40181;51.560;13.000;2023-02-14T00:37:15;102842.03;;;5.61;100.00
54270;BME280;40181;51.560;13.000;2023-02-14T00:39:44;102833.53;;;5.64;100.00
54270;BME280;40181;51.560;13.000;2023-02-14T00:42:16;102834.06;;;5.72;99.96
54270;BME280;40181;51.560;13.000;2023-02-14T00:44:45;102832.81;;;5.66;99.98
54270;BME280;40181;51.560;13.000;2023-02-14T00:47:14;102832.50;;;5.62;100.00
54270;BME280;40181;51.560;13.000;2023-02-14T00:49:44;102830.59;;;5.59;100.00
54270;BME280;40181;51.560;13.000;2023-02-14T00:52:13;102823.44;;;5.68;99.88
54270;BME280;40181;51.560;13.000;2023-02-14T00:54:42;102822.03;;;5.74;99.43
54270;BME280;40181;51.560;13.000;2023-02-14T00:57:11;102824.00;;;5.64;99.80
54270;BME280;40181;51.560;13.000;2023-02-14T00:59:43;102818.47;;;5.60;100.00
54270;BME280;40181;51.560;13.000;2023-02-14T01:02:12;102816.66;;;5.59;99.96
54270;BME280;40181;51.560;13.000;2023-02-14T01:04:41;102812.88;;;5.67;99.45
54270;BME280;40181;51.560;13.000;2023-02-14T01:07:11;102809.34;;;5.66;99.28
54270;BME280;40181;51.560;13.000;2023-02-14T01:09:40;102818.75;;;5.39;99.99
54270;BME280;40181;51.560;13.000;2023-02-14T01:12:09;102821.06;;;5.22;100.00
54270;BME280;40181;51.560;13.000;2023-02-14T01:14:38;102818.75;;;5.39;100.00
54270;BME280;40181;51.560;13.000;2023-02-14T01:17:09;102811.50;;;5.35;100.00
54270;BME280;40181;51.560;13.000;2023-02-14T01:19:38;102810.47;;;5.45;100.00
54270;BME280;40181;51.560;13.000;2023-02-14T01:22:09;102812.72;;;5.52;100.00
54270;BME280;40181;51.560;13.000;2023-02-14T01:24:38;102810.09;;;5.52;100.00
54270;BME280;40181;51.560;13.000;2023-02-14T01:27:07;102804.53;;;5.59;100.00
54270;BME280;40181;51.560;13.000;2023-02-14T01:29:36;102804.06;;;5.65;99.94
54270;BME280;40181;51.560;13.000;2023-02-14T01:32:05;102817.97;;;5.65;99.70
54270;BME280;40181;51.560;13.000;2023-02-14T01:34:37;102815.19;;;5.50;99.53
54270;BME280;40181;51.560;13.000;2023-02-14T01:37:06;102804.09;;;5.53;99.46
54270;BME280;40181;51.560;13.000;2023-02-14T01:39:35;102813.06;;;5.45;99.78
54270;BME280;40181;51.560;13.000;2023-02-14T01:42:04;102806.50;;;5.50;99.53
54270;BME280;40181;51.560;13.000;2023-02-14T01:44:56;102813.25;;;5.60;99.38
54270;BME280;40181;51.560;13.000;2023-02-14T01:47:32;102800.69;;;5.54;99.29
54270;BME280;40181;51.560;13.000;2023-02-14T01:50:07;102802.66;;;5.33;100.00
54270;BME280;40181;51.560;13.000;2023-02-14T01:52:42;102798.91;;;5.41;100.00
54270;BME280;40181;51.560;13.000;2023-02-14T01:55:25;102797.63;;;5.48;100.00
54270;BME280;40181;51.560;13.000;2023-02-14T01:57:59;102800.81;;;5.18;100.00
54270;BME280;40181;51.560;13.000;2023-02-14T02:00:30;102795.84;;;4.85;100.00
54270;BME280;40181;51.560;13.000;2023-02-14T02:03:15;102802.28;;;5.15;100.00
54270;BME280;40181;51.560;13.000;2023-02-14T02:05:47;102791.22;;;4.93;100.00
54270;BME280;40181;51.560;13.000;2023-02-14T02:08:17;102779.53;;;5.00;100.00
54270;BME280;40181;51.560;13.000;2023-02-14T02:10:46;102782.56;;;5.18;100.00
54270;BME280;40181;51.560;13.000;2023-02-14T02:13:17;102780.16;;;5.21;100.00
54270;BME280;40181;51.560;13.000;2023-02-14T02:15:55;102791.91;;;5.28;100.00
54270;BME280;40181;51.560;13.000;2023-02-14T02:18:42;102790.59;;;5.21;100.00
54270;BME280;40181;51.560;13.000;2023-02-14T02:24:47;102780.66;;;5.41;100.00
54270;BME280;40181;51.560;13.000;2023-02-14T02:27:31;102784.75;;;5.37;100.00
54270;BME280;40181;51.560;13.000;2023-02-14T02:33:59;102787.78;;;5.18;100.00
54270;BME280;40181;51.560;13.000;2023-02-14T02:37:08;102772.00;;;5.17;100.00
54270;BME280;40181;51.560;13.000;2023-02-14T02:39:58;102783.22;;;5.28;100.00
54270;BME280;40181;51.560;13.000;2023-02-14T02:42:43;102776.56;;;5.07;100.00
54270;BME280;40181;51.560;13.000;2023-02-14T02:45:23;102785.97;;;5.05;100.00
54270;BME280;40181;51.560;13.000;2023-02-14T02:48:02;102780.31;;;5.11;100.00
54270;BME280;40181;51.560;13.000;2023-02-14T02:50:37;102784.25;;;5.18;100.00
54270;BME280;40181;51.560;13.000;2023-02-14T02:53:40;102783.56;;;5.20;100.00
54270;BME280;40181;51.560;13.000;2023-02-14T02:56:16;102780.88;;;5.07;100.00
54270;BME280;40181;51.560;13.000;2023-02-14T02:59:03;102785.97;;;5.05;100.00
54270;BME280;40181;51.560;13.000;2023-02-14T03:01:44;102780.16;;;5.21;100.00
54270;BME280;40181;51.560;13.000;2023-02-14T03:04:17;102779.56;;;5.25;100.00
54270;BME280;40181;51.560;13.000;2023-02-14T03:07:01;102772.53;;;5.24;100.00
54270;BME280;40181;51.560;13.000;2023-02-14T03:09:57;102779.72;;;5.03;100.00
54270;BME280;40181;51.560;13.000;2023-02-14T03:12:55;102762.63;;;5.07;100.00
54270;BME280;40181;51.560;13.000;2023-02-14T03:19:16;102785.50;;;5.11;100.00
54270;BME280;40181;51.560;13.000;2023-02-14T03:22:18;102772.34;;;5.21;100.00
54270;BME280;40181;51.560;13.000;2023-02-14T03:25:04;102786.25;;;5.22;100.00
54270;BME280;40181;51.560;13.000;2023-02-14T03:27:40;102793.53;;;5.26;100.00
54270;BME280;40181;51.560;13.000;2023-02-14T03:30:18;102784.69;;;5.24;100.00
54270;BME280;40181;51.560;13.000;2023-02-14T03:32:58;102793.72;;;5.29;100.00
54270;BME280;40181;51.560;13.000;2023-02-14T03:35:33;102780.69;;;5.29;100.00
54270;BME280;40181;51.560;13.000;2023-02-14T03:38:07;102786.88;;;4.94;100.00
54270;BME280;40181;51.560;13.000;2023-02-14T03:40:46;102778.50;;;5.10;100.00
54270;BME280;40181;51.560;13.000;2023-02-14T03:43:22;102782.28;;;5.27;100.00
54270;BME280;40181;51.560;13.000;2023-02-14T03:45:56;102783.78;;;5.23;100.00
54270;BME280;40181;51.560;13.000;2023-02-14T03:48:30;102789.19;;;5.26;100.00
54270;BME280;40181;51.560;13.000;2023-02-14T03:51:02;102792.00;;;4.92;100.00
54270;BME280;40181;51.560;13.000;2023-02-14T03:53:39;102788.22;;;5.12;100.00
54270;BME280;40181;51.560;13.000;2023-02-14T03:56:14;102777.09;;;5.15;100.00
54270;BME280;40181;51.560;13.000;2023-02-14T03:58:47;102788.13;;;5.11;100.00
54270;BME280;40181;51.560;13.000;2023-02-14T04:01:24;102774.28;;;5.24;100.00
54270;BME280;40181;51.560;13.000;2023-02-14T04:03:56;102776.78;;;4.98;100.00
54270;BME280;40181;51.560;13.000;2023-02-14T04:06:26;102776.47;;;4.94;100.00
54270;BME280;40181;51.560;13.000;2023-02-14T04:08:55;102790.72;;;5.11;100.00
54270;BME280;40181;51.560;13.000;2023-02-14T04:11:27;102778.91;;;5.16;100.00
54270;BME280;40181;51.560;13.000;2023-02-14T04:13:59;102776.44;;;5.18;100.00
54270;BME280;40181;51.560;13.000;2023-02-14T04:16:29;102784.38;;;5.19;100.00
54270;BME280;40181;51.560;13.000;2023-02-14T04:19:18;102776.50;;;4.82;100.00
54270;BME280;40181;51.560;13.000;2023-02-14T04:21:47;102771.38;;;4.95;100.00
54270;BME280;40181;51.560;13.000;2023-02-14T04:24:17;102766.88;;;4.69;100.00
54270;BME280;40181;51.560;13.000;2023-02-14T04:26:49;102771.84;;;4.90;100.00
54270;BME280;40181;51.560;13.000;2023-02-14T04:29:34;102777.56;;;5.09;100.00
54270;BME280;40181;51.560;13.000;2023-02-14T04:32:05;102769.97;;;5.12;100.00
54270;BME280;40181;51.560;13.000;2023-02-14T04:34:36;102765.00;;;5.16;100.00
54270;BME280;40181;51.560;13.000;2023-02-14T04:37:06;102757.59;;;5.22;100.00
54270;BME280;40181;51.560;13.000;2023-02-14T04:39:36;102760.75;;;5.30;100.00
54270;BME280;40181;51.560;13.000;2023-02-14T04:42:08;102761.66;;;5.30;100.00
54270;BME280;40181;51.560;13.000;2023-02-14T04:44:37;102749.25;;;5.14;100.00
54270;BME280;40181;51.560;13.000;2023-02-14T04:47:07;102742.09;;;5.11;100.00
54270;BME280;40181;51.560;13.000;2023-02-14T04:49:36;102738.94;;;5.16;100.00
54270;BME280;40181;51.560;13.000;2023-02-14T04:52:05;102739.78;;;5.28;100.00
54270;BME280;40181;51.560;13.000;2023-02-14T04:54:38;102744.13;;;5.28;100.00
54270;BME280;40181;51.560;13.000;2023-02-14T04:57:09;102746.25;;;5.33;100.00
54270;BME280;40181;51.560;13.000;2023-02-14T04:59:38;102746.97;;;5.19;100.00
54270;BME280;40181;51.560;13.000;2023-02-14T05:02:07;102742.41;;;5.28;100.00
54270;BME280;40181;51.560;13.000;2023-02-14T05:04:36;102739.00;;;5.29;100.00
54270;BME280;40181;51.560;13.000;2023-02-14T05:07:05;102747.75;;;5.18;100.00
54270;BME280;40181;51.560;13.000;2023-02-14T05:09:35;102741.88;;;5.20;100.00
54270;BME280;40181;51.560;13.000;2023-02-14T05:12:04;102740.22;;;5.09;100.00
54270;BME280;40181;51.560;13.000;2023-02-14T05:14:36;102743.00;;;5.24;100.00
54270;BME280;40181;51.560;13.000;2023-02-14T05:17:05;102742.63;;;5.31;100.00
54270;BME280;40181;51.560;13.000;2023-02-14T05:19:34;102738.09;;;5.29;100.00
54270;BME280;40181;51.560;13.000;2023-02-14T05:22:03;102740.78;;;5.30;100.00
54270;BME280;40181;51.560;13.000;2023-02-14T05:24:32;102728.81;;;5.32;100.00
54270;BME280;40181;51.560;13.000;2023-02-14T05:27:01;102727.31;;;5.36;100.00
54270;BME280;40181;51.560;13.000;2023-02-14T05:29:31;102732.41;;;5.34;100.00
54270;BME280;40181;51.560;13.000;2023-02-14T05:32:03;102731.69;;;5.11;100.00
54270;BME280;40181;51.560;13.000;2023-02-14T05:34:33;102728.38;;;5.26;100.00
54270;BME280;40181;51.560;13.000;2023-02-14T05:37:02;102728.50;;;5.16;100.00
54270;BME280;40181;51.560;13.000;2023-02-14T05:39:31;102738.59;;;5.23;100.00
54270;BME280;40181;51.560;13.000;2023-02-14T05:42:00;102720.66;;;5.28;100.00
54270;BME280;40181;51.560;13.000;2023-02-14T05:44:29;102723.94;;;5.25;100.00
54270;BME280;40181;51.560;13.000;2023-02-14T05:46:58;102734.69;;;5.30;100.00
54270;BME280;40181;51.560;13.000;2023-02-14T05:49:30;102721.44;;;5.26;100.00
54270;BME280;40181;51.560;13.000;2023-02-14T05:51:59;102722.03;;;5.22;100.00
54270;BME280;40181;51.560;13.000;2023-02-14T05:54:28;102735.19;;;5.24;100.00
54270;BME280;40181;51.560;13.000;2023-02-14T05:56:57;102733.81;;;5.17;100.00
54270;BME280;40181;51.560;13.000;2023-02-14T05:59:26;102727.34;;;5.24;100.00
54270;BME280;40181;51.560;13.000;2023-02-14T06:01:55;102732.25;;;5.19;100.00
54270;BME280;40181;51.560;13.000;2023-02-14T06:04:24;102740.78;;;5.30;100.00
54270;BME280;40181;51.560;13.000;2023-02-14T06:06:56;102728.88;;;5.34;100.00
54270;BME280;40181;51.560;13.000;2023-02-14T06:09:25;102736.16;;;5.01;100.00
54270;BME280;40181;51.560;13.000;2023-02-14T06:11:54;102741.53;;;5.16;100.00
54270;BME280;40181;51.560;13.000;2023-02-14T06:14:23;102737.69;;;5.10;100.00
54270;BME280;40181;51.560;13.000;2023-02-14T06:16:52;102740.63;;;5.15;100.00
54270;BME280;40181;51.560;13.000;2023-02-14T06:19:21;102746.28;;;5.21;100.00
54270;BME280;40181;51.560;13.000;2023-02-14T06:21:50;102738.75;;;5.01;100.00
54270;BME280;40181;51.560;13.000;2023-02-14T06:24:22;102745.75;;;5.14;100.00
54270;BME280;40181;51.560;13.000;2023-02-14T06:26:51;102745.63;;;5.12;100.00
54270;BME280;40181;51.560;13.000;2023-02-14T06:29:20;102749.94;;;5.11;100.00
54270;BME280;40181;51.560;13.000;2023-02-14T06:31:49;102746.28;;;5.21;100.00
54270;BME280;40181;51.560;13.000;2023-02-14T06:34:18;102741.97;;;5.22;100.00
54270;BME280;40181;51.560;13.000;2023-02-14T06:36:47;102738.09;;;5.29;100.00
54270;BME280;40181;51.560;13.000;2023-02-14T06:39:16;102742.63;;;5.31;100.00
54270;BME280;40181;51.560;13.000;2023-02-14T06:41:48;102741.88;;;5.20;100.00
54270;BME280;40181;51.560;13.000;2023-02-14T06:44:17;102737.34;;;5.18;100.00
54270;BME280;40181;51.560;13.000;2023-02-14T06:46:46;102741.97;;;5.22;100.00
54270;BME280;40181;51.560;13.000;2023-02-14T06:49:16;102731.16;;;5.29;100.00
54270;BME280;40181;51.560;13.000;2023-02-14T06:51:45;102734.38;;;5.25;100.00
54270;BME280;40181;51.560;13.000;2023-02-14T06:54:15;102744.34;;;5.19;100.00
54270;BME280;40181;51.560;13.000;2023-02-14T06:56:44;102739.00;;;5.29;100.00
54270;BME280;40181;51.560;13.000;2023-02-14T06:59:16;102739.94;;;5.18;100.00
54270;BME280;40181;51.560;13.000;2023-02-14T07:01:45;102739.31;;;5.34;100.00
54270;BME280;40181;51.560;13.000;2023-02-14T07:04:14;102730.50;;;5.32;99.86
54270;BME280;40181;51.560;13.000;2023-02-14T07:06:43;102731.72;;;5.37;99.71
54270;BME280;40181;51.560;13.000;2023-02-14T07:09:13;102726.72;;;5.40;99.75
54270;BME280;40181;51.560;13.000;2023-02-14T07:11:43;102722.19;;;5.37;99.12
54270;BME280;40181;51.560;13.000;2023-02-14T07:14:15;102723.09;;;5.38;99.56
54270;BME280;40181;51.560;13.000;2023-02-14T07:16:44;102725.34;;;5.45;97.67
54270;BME280;40181;51.560;13.000;2023-02-14T07:19:13;102722.63;;;5.44;97.34
54270;BME280;40181;51.560;13.000;2023-02-14T07:21:42;102732.94;;;5.42;95.92
54270;BME280;40181;51.560;13.000;2023-02-14T07:24:11;102728.47;;;5.28;96.72
54270;BME280;40181;51.560;13.000;2023-02-14T07:26:40;102731.97;;;5.28;96.20
54270;BME280;40181;51.560;13.000;2023-02-14T07:29:09;102731.00;;;5.39;95.43
54270;BME280;40181;51.560;13.000;2023-02-14T07:31:40;102732.28;;;5.33;94.87
54270;BME280;40181;51.560;13.000;2023-02-14T07:34:09;102733.91;;;5.31;94.22
54270;BME280;40181;51.560;13.000;2023-02-14T07:36:38;102751.69;;;5.24;94.67
54270;BME280;40181;51.560;13.000;2023-02-14T07:39:08;102748.59;;;5.05;95.52
54270;BME280;40181;51.560;13.000;2023-02-14T07:41:37;102740.72;;;5.29;95.37
54270;BME280;40181;51.560;13.000;2023-02-14T07:44:06;102746.00;;;5.30;95.54
54270;BME280;40181;51.560;13.000;2023-02-14T07:46:36;102744.28;;;5.43;95.14
54270;BME280;40181;51.560;13.000;2023-02-14T07:49:07;102742.34;;;5.40;96.00
54270;BME280;40181;51.560;13.000;2023-02-14T07:51:36;102734.88;;;5.45;95.40
54270;BME280;40181;51.560;13.000;2023-02-14T07:54:05;102744.34;;;5.19;94.70
54270;BME280;40181;51.560;13.000;2023-02-14T07:56:34;102741.13;;;5.35;94.57
54270;BME280;40181;51.560;13.000;2023-02-14T07:59:03;102743.59;;;5.45;93.81
54270;BME280;40181;51.560;13.000;2023-02-14T08:01:32;102743.22;;;5.15;94.70
54270;BME280;40181;51.560;13.000;2023-02-14T08:04:02;102746.09;;;5.44;94.58
54270;BME280;40181;51.560;13.000;2023-02-14T08:06:34;102737.19;;;5.28;92.86
54270;BME280;40181;51.560;13.000;2023-02-14T08:09:03;102734.19;;;5.47;88.82
54270;BME280;40181;51.560;13.000;2023-02-14T08:11:32;102739.47;;;5.49;88.55
54270;BME280;40181;51.560;13.000;2023-02-14T08:14:14;102738.25;;;5.18;88.15
54270;BME280;40181;51.560;13.000;2023-02-14T08:16:43;102735.38;;;5.52;88.79
54270;BME280;40181;51.560;13.000;2023-02-14T08:19:12;102732.63;;;5.37;88.43
54270;BME280;40181;51.560;13.000;2023-02-14T08:21:44;102730.44;;;5.44;88.13
54270;BME280;40181;51.560;13.000;2023-02-14T08:24:13;102733.69;;;5.53;88.38
54270;BME280;40181;51.560;13.000;2023-02-14T08:26:42;102738.84;;;5.65;88.83
54270;BME280;40181;51.560;13.000;2023-02-14T08:29:11;102739.84;;;5.67;89.41
54270;BME280;40181;51.560;13.000;2023-02-14T08:31:40;102740.59;;;5.78;88.48
54270;BME280;40181;51.560;13.000;2023-02-14T08:34:09;102736.97;;;5.76;89.21
54270;BME280;40181;51.560;13.000;2023-02-14T08:36:39;102733.59;;;5.77;87.25
54270;BME280;40181;51.560;13.000;2023-02-14T08:39:10;102735.94;;;5.60;86.58
54270;BME280;40181;51.560;13.000;2023-02-14T08:41:39;102748.75;;;5.32;86.45
54270;BME280;40181;51.560;13.000;2023-02-14T08:44:09;102747.22;;;5.47;86.40
54270;BME280;40181;51.560;13.000;2023-02-14T08:46:38;102743.16;;;5.39;85.73
54270;BME280;40181;51.560;13.000;2023-02-14T08:49:08;102743.63;;;5.59;86.29
54270;BME280;40181;51.560;13.000;2023-02-14T08:51:37;102747.47;;;5.64;86.29
54270;BME280;40181;51.560;13.000;2023-02-14T08:54:06;102738.72;;;5.50;85.58
54270;BME280;40181;51.560;13.000;2023-02-14T08:56:38;102749.28;;;5.65;86.52
54270;BME280;40181;51.560;13.000;2023-02-14T08:59:07;102743.69;;;5.72;86.60
54270;BME280;40181;51.560;13.000;2023-02-14T09:01:36;102745.16;;;5.43;85.69
54270;BME280;40181;51.560;13.000;2023-02-14T09:04:05;102738.78;;;5.51;85.71
54270;BME280;40181;51.560;13.000;2023-02-14T09:06:36;102745.75;;;5.64;85.30
54270;BME280;40181;51.560;13.000;2023-02-14T09:09:05;102740.34;;;5.61;85.51
54270;BME280;40181;51.560;13.000;2023-02-14T09:11:34;102743.84;;;5.62;85.51
54270;BME280;40181;51.560;13.000;2023-02-14T09:14:06;102744.75;;;5.62;85.31
54270;BME280;40181;51.560;13.000;2023-02-14T09:16:35;102741.78;;;5.70;85.37
54270;BME280;40181;51.560;13.000;2023-02-14T09:19:05;102749.06;;;5.62;85.36
54270;BME280;40181;51.560;13.000;2023-02-14T09:21:34;102752.91;;;5.67;84.59
54270;BME280;40181;51.560;13.000;2023-02-14T09:24:03;102753.38;;;5.61;84.92
54270;BME280;40181;51.560;13.000;2023-02-14T09:26:32;102749.81;;;5.73;85.24
54270;BME280;40181;51.560;13.000;2023-02-14T09:29:07;102753.25;;;5.85;85.27
54270;BME280;40181;51.560;13.000;2023-02-14T09:31:37;102752.28;;;5.71;84.12
54270;BME280;40181;51.560;13.000;2023-02-14T09:34:06;102767.56;;;5.28;85.12
54270;BME280;40181;51.560;13.000;2023-02-14T09:36:35;102759.13;;;5.44;85.38
54270;BME280;40181;51.560;13.000;2023-02-14T09:39:17;102766.34;;;5.48;85.40
54270;BME280;40181;51.560;13.000;2023-02-14T09:44:55;102756.94;;;5.75;84.56
54270;BME280;40181;51.560;13.000;2023-02-14T09:47:34;102755.75;;;5.58;84.41
54270;BME280;40181;51.560;13.000;2023-02-14T09:50:12;102763.44;;;5.68;84.39
54270;BME280;40181;51.560;13.000;2023-02-14T09:52:49;102755.94;;;5.73;84.71
54270;BME280;40181;51.560;13.000;2023-02-14T09:55:20;102751.34;;;5.82;84.52
54270;BME280;40181;51.560;13.000;2023-02-14T09:58:05;102758.63;;;6.00;84.56
54270;BME280;40181;51.560;13.000;2023-02-14T10:00:45;102753.97;;;5.96;84.48
54270;BME280;40181;51.560;13.000;2023-02-14T10:03:37;102755.91;;;5.99;84.18
54270;BME280;40181;51.560;13.000;2023-02-14T10:06:41;102749.13;;;5.89;84.54
54270;BME280;40181;51.560;13.000;2023-02-14T10:09:25;102758.50;;;5.99;84.03
54270;BME280;40181;51.560;13.000;2023-02-14T10:12:22;102753.25;;;5.85;83.60
54270;BME280;40181;51.560;13.000;2023-02-14T10:14:56;102757.69;;;5.86;84.75
54270;BME280;40181;51.560;13.000;2023-02-14T10:17:37;102764.91;;;5.90;84.09
54270;BME280;40181;51.560;13.000;2023-02-14T10:20:17;102766.38;;;5.73;84.48
54270;BME280;40181;51.560;13.000;2023-02-14T10:22:56;102774.41;;;5.76;84.08
54270;BME280;40181;51.560;13.000;2023-02-14T10:25:35;102753.81;;;5.67;84.58
54270;BME280;40181;51.560;13.000;2023-02-14T10:28:11;102749.06;;;5.87;83.50
54270;BME280;40181;51.560;13.000;2023-02-14T10:30:47;102760.34;;;5.74;83.63
54270;BME280;40181;51.560;13.000;2023-02-14T10:33:27;102757.59;;;5.59;84.55
54270;BME280;40181;51.560;13.000;2023-02-14T10:36:03;102749.00;;;5.74;84.17
54270;BME280;40181;51.560;13.000;2023-02-14T10:38:40;102758.00;;;5.91;83.89
54270;BME280;40181;51.560;13.000;2023-02-14T10:41:28;102755.09;;;5.86;84.33
54270;BME280;40181;51.560;13.000;2023-02-14T10:44:17;102759.78;;;6.04;83.71
54270;BME280;40181;51.560;13.000;2023-02-14T10:47:00;102755.47;;;5.92;83.42
54270;BME280;40181;51.560;13.000;2023-02-14T10:49:42;102753.53;;;6.02;82.91
54270;BME280;40181;51.560;13.000;2023-02-14T10:52:20;102752.13;;;6.07;83.57
54270;BME280;40181;51.560;13.000;2023-02-14T10:54:53;102753.16;;;5.84;83.26
54270;BME280;40181;51.560;13.000;2023-02-14T10:57:26;102756.47;;;5.81;83.23
54270;BME280;40181;51.560;13.000;2023-02-14T11:00:00;102748.38;;;5.90;83.24
54270;BME280;40181;51.560;13.000;2023-02-14T11:02:34;102753.25;;;5.85;82.77
54270;BME280;40181;51.560;13.000;2023-02-14T11:05:22;102746.84;;;5.93;82.22
54270;BME280;40181;51.560;13.000;2023-02-14T11:07:53;102747.66;;;5.92;83.47
54270;BME280;40181;51.560;13.000;2023-02-14T11:10:25;102742.06;;;6.00;83.20
54270;BME280;40181;51.560;13.000;2023-02-14T11:12:57;102752.47;;;6.00;82.51
54270;BME280;40181;51.560;13.000;2023-02-14T11:15:29;102744.88;;;6.03;82.78
54270;BME280;40181;51.560;13.000;2023-02-14T11:18:22;102746.81;;;6.05;82.17
54270;BME280;40181;51.560;13.000;2023-02-14T11:21:17;102737.63;;;5.99;82.68
54270;BME280;40181;51.560;13.000;2023-02-14T11:23:50;102729.53;;;5.68;82.50
54270;BME280;40181;51.560;13.000;2023-02-14T11:26:19;102735.59;;;5.81;83.63
54270;BME280;40181;51.560;13.000;2023-02-14T11:28:53;102733.41;;;5.87;82.91
54270;BME280;40181;51.560;13.000;2023-02-14T11:31:29;102743.16;;;5.90;83.48
54270;BME280;40181;51.560;13.000;2023-02-14T11:34:03;102733.59;;;5.77;82.00
54270;BME280;40181;51.560;13.000;2023-02-14T11:36:48;102723.13;;;6.02;82.02
54270;BME280;40181;51.560;13.000;2023-02-14T11:39:26;102729.69;;;5.97;82.16
54270;BME280;40181;51.560;13.000;2023-02-14T11:41:59;102718.38;;;5.97;82.81
54270;BME280;40181;51.560;13.000;2023-02-14T11:44:31;102724.88;;;5.90;82.11
54270;BME280;40181;51.560;13.000;2023-02-14T11:47:19;102723.59;;;5.97;82.29
54270;BME280;40181;51.560;13.000;2023-02-14T11:49:56;102703.03;;;6.01;81.70
54270;BME280;40181;51.560;13.000;2023-02-14T11:52:29;102707.66;;;6.05;81.48
54270;BME280;40181;51.560;13.000;2023-02-14T11:54:59;102696.66;;;6.09;81.90
54270;BME280;40181;51.560;13.000;2023-02-14T11:57:32;102702.09;;;6.01;81.26
54270;BME280;40181;51.560;13.000;2023-02-14T12:00:14;102692.00;;;6.05;82.33
54270;BME280;40181;51.560;13.000;2023-02-14T12:02:46;102687.22;;;6.12;80.93
54270;BME280;40181;51.560;13.000;2023-02-14T12:05:17;102690.47;;;5.95;80.49
54270;BME280;40181;51.560;13.000;2023-02-14T12:07:53;102676.00;;;6.01;80.18
54270;BME280;40181;51.560;13.000;2023-02-14T12:10:26;102666.91;;;6.07;81.54
54270;BME280;40181;51.560;13.000;2023-02-14T12:13:00;102666.50;;;6.01;81.36
54270;BME280;40181;51.560;13.000;2023-02-14T12:15:36;102671.84;;;6.16;81.78
54270;BME280;40181;51.560;13.000;2023-02-14T12:18:24;102669.91;;;6.00;81.87
54270;BME280;40181;51.560;13.000;2023-02-14T12:24:02;102667.00;;;5.95;80.18
54270;BME280;40181;51.560;13.000;2023-02-14T12:26:43;102662.06;;;5.87;80.45
54270;BME280;40181;51.560;13.000;2023-02-14T12:29:18;102658.44;;;5.98;82.07
54270;BME280;40181;51.560;13.000;2023-02-14T12:31:52;102654.56;;;6.18;82.44
54270;BME280;40181;51.560;13.000;2023-02-14T12:34:23;102658.09;;;6.05;81.01
54270;BME280;40181;51.560;13.000;2023-02-14T12:37:09;102652.47;;;6.13;81.70
54270;BME280;40181;51.560;13.000;2023-02-14T12:39:58;102658.91;;;6.18;82.30
54270;BME280;40181;51.560;13.000;2023-02-14T12:42:58;102652.97;;;6.20;81.22
54270;BME280;40181;51.560;13.000;2023-02-14T12:46:00;102650.06;;;6.16;80.73
54270;BME280;40181;51.560;13.000;2023-02-14T12:48:51;102649.97;;;6.41;82.06
54270;BME280;40181;51.560;13.000;2023-02-14T12:51:32;102653.28;;;6.12;81.08
54270;BME280;40181;51.560;13.000;2023-02-14T12:54:22;102644.03;;;6.44;81.58
54270;BME280;40181;51.560;13.000;2023-02-14T12:57:11;102652.16;;;6.35;80.09
54270;BME280;40181;51.560;13.000;2023-02-14T12:59:55;102642.13;;;6.41;81.10
54270;BME280;40181;51.560;13.000;2023-02-14T13:02:53;102638.53;;;6.68;79.85
54270;BME280;40181;51.560;13.000;2023-02-14T13:05:45;102629.47;;;6.76;78.58
54270;BME280;40181;51.560;13.000;2023-02-14T13:08:33;102634.75;;;6.91;77.18
54270;BME280;40181;51.560;13.000;2023-02-14T13:11:16;102638.28;;;6.91;76.88
54270;BME280;40181;51.560;13.000;2023-02-14T13:13:59;102623.59;;;6.94;77.24
54270;BME280;40181;51.560;13.000;2023-02-14T13:16:42;102624.50;;;6.66;78.55
54270;BME280;40181;51.560;13.000;2023-02-14T13:19:27;102620.91;;;6.50;78.97
54270;BME280;40181;51.560;13.000;2023-02-14T13:22:03;102615.22;;;6.71;78.82
54270;BME280;40181;51.560;13.000;2023-02-14T13:24:38;102622.00;;;6.54;78.24
54270;BME280;40181;51.560;13.000;2023-02-14T13:27:13;102613.41;;;6.70;78.55
54270;BME280;40181;51.560;13.000;2023-02-14T13:29:50;102603.31;;;6.61;79.42
54270;BME280;40181;51.560;13.000;2023-02-14T13:32:23;102598.09;;;6.47;79.89
54270;BME280;40181;51.560;13.000;2023-02-14T13:34:56;102602.78;;;6.25;79.64
54270;BME280;40181;51.560;13.000;2023-02-14T13:37:27;102603.91;;;6.57;80.14
54270;BME280;40181;51.560;13.000;2023-02-14T13:40:00;102597.97;;;6.59;79.44